createdAt,value
2017-03-22T00:01:40.684Z,83.810
2017-03-22T00:04:35.136Z,84.151
2017-03-22T00:07:29.451Z,84.196
2017-03-22T00:10:23.928Z,84.362
2017-03-22T00:13:18.326Z,84.737
2017-03-22T00:16:12.740Z,85.008
2017-03-22T00:19:07.188Z,85.223
2017-03-22T00:22:01.633Z,85.842
2017-03-22T00:24:57.702Z,85.925
2017-03-22T00:27:50.375Z,86.663
2017-03-22T00:30:45.335Z,86.782
2017-03-22T00:33:41.434Z,87.055
2017-03-22T00:36:34.604Z,87.078
2017-03-22T00:39:28.907Z,87.554
2017-03-22T00:42:23.205Z,87.916
2017-03-22T00:45:17.305Z,88.241
2017-03-22T00:48:13.312Z,88.419
2017-03-22T00:51:05.950Z,88.718
2017-03-22T00:54:00.201Z,88.690
2017-03-22T00:56:54.110Z,88.738
2017-03-22T00:59:48.162Z,88.876
2017-03-22T01:02:42.628Z,88.993
2017-03-22T01:05:37.042Z,89.254
2017-03-22T01:08:31.644Z,89.426
2017-03-22T01:11:28.067Z,89.574
2017-03-22T01:14:20.770Z,90.014
2017-03-22T01:17:15.362Z,90.221
2017-03-22T01:20:09.845Z,90.265
2017-03-22T01:23:04.316Z,90.327
2017-03-22T01:25:58.831Z,90.542
2017-03-22T01:28:53.492Z,90.653
2017-03-22T01:31:49.799Z,90.115
2017-03-22T01:34:44.181Z,90.164
2017-03-22T01:37:36.996Z,90.129
2017-03-22T01:40:31.537Z,89.719
2017-03-22T01:43:25.999Z,90.135
2017-03-22T01:46:20.587Z,89.974
2017-03-22T01:49:15.216Z,89.904
2017-03-22T01:52:11.431Z,89.935
2017-03-22T01:55:04.308Z,90.295
2017-03-22T01:57:58.872Z,90.186
2017-03-22T02:00:53.463Z,90.431
2017-03-22T02:03:47.786Z,90.319
2017-03-22T02:06:42.279Z,90.044
2017-03-22T02:09:36.791Z,89.921
2017-03-22T02:12:32.790Z,90.069
2017-03-22T02:15:25.432Z,90.346
2017-03-22T02:18:19.739Z,90.166
2017-03-22T02:21:13.953Z,89.928
2017-03-22T02:24:09.898Z,90.076
2017-03-22T02:27:02.441Z,90.285
2017-03-22T02:29:58.442Z,90.382
2017-03-22T02:32:50.805Z,90.182
2017-03-22T02:35:45.115Z,89.999
2017-03-22T02:38:39.194Z,90.090
2017-03-22T02:41:35.190Z,89.808
2017-03-22T02:44:27.889Z,89.798
2017-03-22T02:47:22.106Z,90.022
2017-03-22T02:50:18.062Z,90.001
2017-03-22T02:53:10.712Z,90.039
2017-03-22T02:56:04.853Z,89.867
2017-03-22T02:58:59.063Z,90.150
2017-03-22T03:01:53.157Z,90.086
2017-03-22T03:04:47.184Z,90.039
2017-03-22T03:07:41.144Z,89.878
2017-03-22T03:10:36.731Z,89.897
2017-03-22T03:13:29.021Z,89.807
2017-03-22T03:16:23.316Z,89.587
2017-03-22T03:19:18.437Z,89.442
2017-03-22T03:22:11.820Z,89.595
2017-03-22T03:25:03.372Z,89.989
2017-03-22T03:27:56.343Z,90.073
2017-03-22T03:30:51.549Z,89.782
2017-03-22T03:33:42.893Z,89.910
2017-03-22T03:36:36.086Z,89.961
2017-03-22T03:39:30.936Z,89.634
2017-03-22T03:42:22.728Z,89.813
2017-03-22T03:45:17.713Z,89.487
2017-03-22T03:48:09.217Z,89.729
2017-03-22T03:51:04.684Z,89.773
2017-03-22T03:53:58.932Z,89.965
2017-03-22T03:56:51.819Z,89.916
2017-03-22T03:59:46.505Z,89.860
2017-03-22T04:02:40.957Z,89.677
2017-03-22T04:05:35.527Z,89.704
2017-03-22T04:08:30.142Z,89.693
2017-03-22T04:11:25.295Z,89.607
2017-03-22T04:14:19.768Z,89.279
2017-03-22T04:17:14.200Z,89.715
2017-03-22T04:20:11.139Z,90.272
2017-03-22T04:23:03.868Z,89.731
2017-03-22T04:25:58.433Z,89.882
2017-03-22T04:28:52.915Z,89.851
2017-03-22T04:31:47.537Z,90.410
2017-03-22T04:34:41.947Z,90.799
2017-03-22T04:37:36.581Z,91.215
2017-03-22T04:40:31.041Z,91.416
2017-03-22T04:43:25.610Z,91.692
2017-03-22T04:46:21.903Z,91.348
2017-03-22T04:49:14.454Z,91.498
2017-03-22T04:52:09.240Z,91.554
2017-03-22T04:55:05.526Z,91.509
2017-03-22T04:57:58.365Z,91.475
2017-03-22T05:00:52.920Z,91.209
2017-03-22T05:03:47.377Z,91.293
2017-03-22T05:06:41.709Z,91.076
2017-03-22T05:09:36.039Z,91.711
2017-03-22T05:12:30.515Z,91.681
2017-03-22T05:15:24.904Z,91.814
2017-03-22T05:18:20.973Z,91.787
2017-03-22T05:21:13.872Z,92.008
2017-03-22T05:24:08.600Z,92.363
2017-03-22T05:27:03.908Z,92.311
2017-03-22T05:29:57.795Z,91.732
2017-03-22T05:32:52.175Z,91.499
2017-03-22T05:35:46.621Z,90.953
2017-03-22T05:38:41.079Z,90.085
2017-03-22T05:41:35.666Z,89.941
2017-03-22T05:44:30.238Z,89.855
2017-03-22T05:47:25.030Z,89.225
2017-03-22T05:50:19.557Z,88.966
2017-03-22T05:53:15.860Z,88.592
2017-03-22T05:56:09.576Z,88.313
2017-03-22T05:59:03.155Z,88.010
2017-03-22T06:01:57.717Z,87.484
2017-03-22T06:04:52.354Z,86.746
2017-03-22T06:07:46.977Z,85.722
2017-03-22T06:10:41.572Z,85.315
2017-03-22T06:13:36.178Z,85.139
2017-03-22T06:16:30.834Z,84.220
2017-03-22T06:19:26.004Z,83.187
2017-03-22T06:22:20.787Z,81.715
2017-03-22T06:25:15.499Z,80.699
2017-03-22T06:28:12.123Z,78.663
2017-03-22T06:31:05.283Z,78.570
2017-03-22T06:34:00.135Z,76.922
2017-03-22T06:36:56.782Z,73.249
2017-03-22T06:39:49.826Z,72.712
2017-03-22T06:42:44.694Z,70.153
2017-03-22T06:45:39.410Z,68.531
2017-03-22T06:48:33.966Z,64.566
2017-03-22T06:51:29.991Z,63.921
2017-03-22T06:54:22.923Z,60.582
2017-03-22T06:57:17.387Z,52.942
2017-03-22T07:00:11.841Z,53.278
2017-03-22T07:03:07.170Z,48.150
2017-03-22T07:06:04.422Z,40.381
2017-03-22T07:08:58.097Z,39.869
2017-03-22T07:11:53.675Z,40.579
2017-03-22T07:14:49.114Z,42.561
2017-03-22T07:17:44.479Z,44.681
2017-03-22T07:20:39.898Z,45.867
2017-03-22T07:23:35.232Z,46.375
2017-03-22T07:26:30.422Z,48.097
2017-03-22T07:29:25.525Z,47.990
2017-03-22T07:32:20.545Z,49.870
2017-03-22T07:35:15.660Z,51.851
2017-03-22T07:38:10.922Z,52.499
2017-03-22T07:41:06.267Z,50.779
2017-03-22T07:44:01.543Z,50.349
2017-03-22T07:46:56.869Z,47.826
2017-03-22T07:49:52.435Z,41.471
2017-03-22T07:52:49.621Z,40.900
2017-03-22T07:55:44.917Z,36.965
2017-03-22T07:58:38.150Z,39.495
2017-03-22T08:01:32.617Z,35.343
2017-03-22T08:04:27.480Z,39.701
2017-03-22T08:07:22.472Z,38.875
2017-03-22T08:10:17.594Z,33.791
2017-03-22T08:13:14.932Z,31.705
2017-03-22T08:16:08.373Z,29.908
2017-03-22T08:19:03.531Z,32.982
2017-03-22T08:21:58.610Z,34.418
2017-03-22T08:24:53.585Z,28.594
2017-03-22T08:27:48.785Z,28.650
2017-03-22T08:30:45.704Z,26.787
2017-03-22T08:33:39.298Z,30.227
2017-03-22T08:36:34.865Z,23.201
2017-03-22T08:39:30.320Z,29.567
2017-03-22T08:42:27.279Z,22.539
2017-03-22T08:45:21.251Z,20.741
2017-03-22T08:48:17.217Z,16.707
2017-03-22T08:51:13.411Z,23.935
2017-03-22T08:54:09.380Z,24.017
2017-03-22T08:57:05.246Z,15.752
2017-03-22T09:00:00.770Z,18.272
2017-03-22T09:02:55.751Z,21.347
2017-03-22T09:05:50.718Z,21.326
2017-03-22T09:08:45.772Z,20.708
2017-03-22T09:11:40.998Z,19.362
2017-03-22T09:14:38.002Z,19.545
2017-03-22T09:17:31.744Z,18.791
2017-03-22T09:20:27.443Z,19.205
2017-03-22T09:23:23.081Z,19.642
2017-03-22T09:26:18.632Z,14.337
2017-03-22T09:29:14.275Z,14.932
2017-03-22T09:32:09.971Z,13.739
2017-03-22T09:35:05.716Z,25.652
2017-03-22T09:38:01.453Z,8.918
2017-03-22T09:40:57.050Z,11.850
2017-03-22T09:43:52.420Z,9.460
2017-03-22T09:46:47.662Z,10.601
2017-03-22T09:49:43.124Z,10.013
2017-03-22T09:52:38.600Z,12.995
2017-03-22T09:55:33.972Z,9.751
2017-03-22T09:58:29.475Z,12.240
2017-03-22T10:01:25.123Z,11.087
2017-03-22T10:04:20.591Z,26.526
2017-03-22T10:07:17.664Z,17.627
2017-03-22T10:10:11.340Z,15.627
2017-03-22T10:13:06.740Z,14.623
2017-03-22T10:16:02.428Z,11.372
2017-03-22T10:18:57.831Z,14.976
2017-03-22T10:21:53.110Z,14.371
2017-03-22T10:24:48.522Z,12.187
2017-03-22T10:27:43.613Z,16.625
2017-03-22T10:30:38.158Z,17.396
2017-03-22T10:33:32.612Z,21.531
2017-03-22T10:36:26.980Z,23.902
2017-03-22T10:39:23.397Z,26.509
2017-03-22T10:42:16.386Z,26.918
2017-03-22T10:45:11.049Z,29.405
2017-03-22T10:48:05.964Z,28.653
2017-03-22T10:51:02.574Z,30.981
2017-03-22T10:53:55.717Z,31.234
2017-03-22T10:56:50.487Z,32.583
2017-03-22T10:59:45.283Z,35.198
2017-03-22T11:02:40.271Z,33.041
2017-03-22T11:05:35.114Z,35.104
2017-03-22T11:08:29.843Z,35.907
2017-03-22T11:11:24.645Z,34.094
2017-03-22T11:14:19.319Z,37.850
2017-03-22T11:17:14.136Z,37.643
2017-03-22T11:20:09.039Z,36.696
2017-03-22T11:23:04.055Z,34.946
2017-03-22T11:25:59.133Z,36.325
2017-03-22T11:28:54.079Z,38.137
2017-03-22T11:31:49.098Z,37.323
2017-03-22T11:34:44.046Z,38.857
2017-03-22T11:37:39.094Z,39.791
2017-03-22T11:40:36.025Z,37.832
2017-03-22T11:43:29.339Z,38.776
2017-03-22T11:46:26.192Z,38.232
2017-03-22T11:49:19.427Z,38.227
2017-03-22T11:52:14.534Z,38.819
2017-03-22T11:55:09.914Z,39.862
2017-03-22T11:58:04.909Z,38.422
2017-03-22T12:00:59.919Z,39.052
2017-03-22T12:03:54.813Z,40.262
2017-03-22T12:06:49.898Z,37.966
2017-03-22T12:09:44.964Z,39.330
2017-03-22T12:12:40.003Z,37.279
2017-03-22T12:15:36.862Z,37.535
2017-03-22T12:18:30.220Z,37.894
2017-03-22T12:21:25.188Z,37.427
2017-03-22T12:24:20.226Z,37.552
2017-03-22T12:27:15.217Z,38.152
2017-03-22T12:30:10.080Z,39.278
2017-03-22T12:33:05.020Z,39.332
2017-03-22T12:35:59.912Z,39.142
2017-03-22T12:38:54.725Z,39.592
2017-03-22T12:41:49.632Z,39.890
2017-03-22T12:44:44.481Z,39.421
2017-03-22T12:47:39.279Z,39.819
2017-03-22T12:50:34.107Z,40.277
2017-03-22T12:53:28.974Z,40.193
2017-03-22T12:56:23.704Z,39.359
2017-03-22T12:59:18.538Z,39.669
2017-03-22T13:02:13.421Z,40.561
2017-03-22T13:05:08.111Z,39.359
2017-03-22T13:08:02.882Z,38.751
2017-03-22T13:10:57.570Z,39.685
2017-03-22T13:13:52.354Z,39.482
2017-03-22T13:16:48.966Z,37.008
2017-03-22T13:19:41.938Z,39.314
2017-03-22T13:22:36.804Z,39.838
2017-03-22T13:25:31.596Z,40.547
2017-03-22T13:28:26.271Z,39.541
2017-03-22T13:31:20.849Z,39.789
2017-03-22T13:34:17.158Z,39.966
2017-03-22T13:37:10.067Z,40.828
2017-03-22T13:40:04.712Z,40.888
2017-03-22T13:42:59.303Z,40.944
2017-03-22T13:45:53.583Z,41.621
2017-03-22T13:48:49.670Z,43.224
2017-03-22T13:51:42.005Z,42.834
2017-03-22T13:54:36.263Z,42.109
2017-03-22T13:57:30.356Z,41.958
2017-03-22T14:00:24.463Z,42.416
2017-03-22T14:03:18.670Z,43.004
2017-03-22T14:06:11.848Z,43.262
2017-03-22T14:09:05.879Z,43.294
2017-03-22T14:11:59.857Z,43.030
2017-03-22T14:14:53.655Z,43.166
2017-03-22T14:17:48.068Z,42.501
2017-03-22T14:20:43.193Z,43.579
2017-03-22T14:23:38.328Z,43.347
2017-03-22T14:26:33.404Z,42.101
2017-03-22T14:29:28.444Z,42.740
2017-03-22T14:32:23.439Z,42.119
2017-03-22T14:35:18.390Z,42.031
2017-03-22T14:38:13.137Z,42.313
2017-03-22T14:41:07.827Z,42.895
2017-03-22T14:44:02.631Z,42.236
2017-03-22T14:46:57.467Z,41.988
2017-03-22T14:49:52.804Z,41.814
2017-03-22T14:52:47.150Z,42.121
2017-03-22T14:55:43.592Z,41.797
2017-03-22T14:58:36.792Z,42.714
2017-03-22T15:01:31.666Z,41.460
2017-03-22T15:04:26.445Z,40.277
2017-03-22T15:07:21.284Z,40.111
2017-03-22T15:10:16.134Z,40.700
2017-03-22T15:13:10.957Z,41.731
2017-03-22T15:16:05.725Z,42.129
2017-03-22T15:19:00.555Z,42.740
2017-03-22T15:21:55.272Z,43.164
2017-03-22T15:24:49.990Z,43.290
2017-03-22T15:27:44.730Z,42.723
2017-03-22T15:30:41.176Z,42.275
2017-03-22T15:33:34.106Z,42.738
2017-03-22T15:36:28.874Z,41.942
2017-03-22T15:39:23.539Z,42.432
2017-03-22T15:42:18.336Z,43.564
2017-03-22T15:45:13.011Z,43.155
2017-03-22T15:48:07.830Z,43.559
2017-03-22T15:51:04.469Z,44.139
2017-03-22T15:53:57.477Z,44.968
2017-03-22T15:56:52.163Z,45.228
2017-03-22T15:59:46.911Z,45.722
2017-03-22T16:02:41.629Z,46.074
2017-03-22T16:05:38.161Z,46.494
2017-03-22T16:08:31.133Z,46.637
2017-03-22T16:11:27.631Z,47.621
2017-03-22T16:14:20.757Z,47.851
2017-03-22T16:17:15.484Z,47.308
2017-03-22T16:20:11.894Z,47.540
2017-03-22T16:23:04.918Z,48.117
2017-03-22T16:25:59.586Z,47.431
2017-03-22T16:28:54.305Z,46.892
2017-03-22T16:31:49.076Z,46.067
2017-03-22T16:34:43.804Z,46.335
2017-03-22T16:37:38.499Z,46.684
2017-03-22T16:40:33.177Z,46.275
2017-03-22T16:43:29.526Z,47.465
2017-03-22T16:46:22.516Z,46.214
2017-03-22T16:49:17.158Z,45.930
2017-03-22T16:52:11.905Z,45.710
2017-03-22T16:55:06.572Z,46.053
2017-03-22T16:58:01.266Z,46.620
2017-03-22T17:00:55.803Z,47.224
2017-03-22T17:03:52.161Z,48.148
2017-03-22T17:06:45.048Z,49.239
2017-03-22T17:09:40.095Z,49.891
2017-03-22T17:12:34.558Z,50.585
2017-03-22T17:15:29.178Z,49.740
2017-03-22T17:18:23.664Z,51.850
2017-03-22T17:21:19.812Z,52.048
2017-03-22T17:24:12.530Z,52.613
2017-03-22T17:27:06.828Z,51.542
2017-03-22T17:30:01.233Z,53.613
2017-03-22T17:32:55.540Z,54.272
2017-03-22T17:35:49.719Z,54.162
2017-03-22T17:38:43.962Z,54.644
2017-03-22T17:41:38.137Z,54.869
2017-03-22T17:44:32.444Z,55.969
2017-03-22T17:47:28.179Z,54.501
2017-03-22T17:50:22.403Z,56.125
2017-03-22T17:53:14.643Z,56.319
2017-03-22T17:56:08.326Z,56.093
2017-03-22T17:59:01.752Z,55.600
2017-03-22T18:01:54.888Z,55.703
2017-03-22T18:04:47.929Z,55.751
2017-03-22T18:07:41.481Z,56.029
2017-03-22T18:10:36.550Z,56.276
2017-03-22T18:13:28.273Z,55.544
2017-03-22T18:16:21.849Z,55.672
2017-03-22T18:19:17.183Z,56.155
2017-03-22T18:22:08.829Z,55.976
2017-03-22T18:25:02.303Z,56.378
2017-03-22T18:27:55.881Z,55.926
2017-03-22T18:30:51.179Z,56.647
2017-03-22T18:33:42.978Z,56.486
2017-03-22T18:36:36.379Z,55.706
2017-03-22T18:39:31.585Z,55.907
2017-03-22T18:42:23.353Z,56.676
2017-03-22T18:45:18.672Z,56.606
2017-03-22T18:48:10.379Z,56.940
2017-03-22T18:51:03.882Z,56.414
2017-03-22T18:53:59.101Z,57.309
2017-03-22T18:56:50.814Z,57.670
2017-03-22T18:59:44.078Z,56.725
2017-03-22T19:02:39.333Z,54.874
2017-03-22T19:05:31.246Z,57.957
2017-03-22T19:08:24.790Z,57.084
2017-03-22T19:11:19.980Z,56.926
2017-03-22T19:14:12.014Z,56.569
2017-03-22T19:17:05.541Z,56.513
2017-03-22T19:20:00.904Z,57.550
2017-03-22T19:22:52.805Z,57.926
2017-03-22T19:25:47.984Z,57.603
2017-03-22T19:28:39.878Z,57.316
2017-03-22T19:31:33.495Z,57.807
2017-03-22T19:34:27.425Z,56.577
2017-03-22T19:37:21.438Z,57.703
2017-03-22T19:40:15.658Z,55.473
2017-03-22T19:43:11.471Z,56.215
2017-03-22T19:46:03.602Z,55.672
2017-03-22T19:48:57.051Z,53.959
2017-03-22T19:51:50.705Z,54.907
2017-03-22T19:54:44.349Z,54.893
2017-03-22T19:57:38.016Z,55.053
2017-03-22T20:00:31.821Z,55.359
2017-03-22T20:03:25.556Z,54.281
2017-03-22T20:06:19.491Z,54.651
2017-03-22T20:09:13.348Z,54.985
2017-03-22T20:12:07.174Z,54.228
2017-03-22T20:15:02.770Z,55.306
2017-03-22T20:17:56.183Z,55.465
2017-03-22T20:20:48.363Z,54.782
2017-03-22T20:23:42.145Z,53.821
2017-03-22T20:26:37.725Z,54.257
2017-03-22T20:29:29.822Z,54.418
2017-03-22T20:32:23.651Z,54.571
2017-03-22T20:35:17.505Z,54.453
2017-03-22T20:38:11.372Z,54.423
2017-03-22T20:41:06.987Z,56.022
2017-03-22T20:43:59.242Z,55.479
2017-03-22T20:46:54.842Z,54.545
2017-03-22T20:49:47.122Z,53.731
2017-03-22T20:52:41.018Z,54.739
2017-03-22T20:55:35.001Z,55.631
2017-03-22T20:58:28.992Z,54.691
2017-03-22T21:01:23.003Z,54.979
2017-03-22T21:04:16.795Z,55.170
2017-03-22T21:07:12.374Z,54.931
2017-03-22T21:10:04.625Z,53.600
2017-03-22T21:12:58.524Z,54.996
2017-03-22T21:15:52.504Z,55.613
2017-03-22T21:18:46.428Z,55.384
2017-03-22T21:21:40.334Z,54.818
2017-03-22T21:24:34.184Z,55.752
2017-03-22T21:27:28.064Z,56.128
2017-03-22T21:30:23.624Z,57.582
2017-03-22T21:33:15.802Z,58.456
2017-03-22T21:36:11.452Z,58.195
2017-03-22T21:39:05.245Z,59.063
2017-03-22T21:41:57.711Z,58.096
2017-03-22T21:44:51.629Z,56.389
2017-03-22T21:47:47.070Z,56.386
2017-03-22T21:50:41.008Z,58.386
2017-03-22T21:53:34.877Z,57.973
2017-03-22T21:56:26.994Z,59.089
2017-03-22T21:59:20.939Z,59.590
2017-03-22T22:02:14.956Z,58.722
2017-03-22T22:05:08.871Z,59.598
2017-03-22T22:08:02.896Z,59.787
2017-03-22T22:10:56.835Z,60.110
2017-03-22T22:13:50.698Z,59.287
2017-03-22T22:16:44.575Z,59.110
2017-03-22T22:19:40.157Z,59.308
2017-03-22T22:22:32.346Z,58.347
2017-03-22T22:25:27.913Z,59.803
2017-03-22T22:28:20.323Z,60.445
2017-03-22T22:31:13.988Z,61.260
2017-03-22T22:34:07.807Z,61.373
2017-03-22T22:37:01.550Z,60.895
2017-03-22T22:39:57.009Z,61.370
2017-03-22T22:42:50.698Z,62.597
2017-03-22T22:45:44.387Z,62.543
2017-03-22T22:48:36.953Z,62.223
2017-03-22T22:51:30.710Z,60.483
2017-03-22T22:54:26.515Z,63.312
2017-03-22T22:57:18.832Z,62.565
2017-03-22T23:00:14.218Z,62.458
2017-03-22T23:03:06.201Z,62.087
2017-03-22T23:05:59.841Z,63.179
2017-03-22T23:08:55.289Z,63.383
2017-03-22T23:11:48.938Z,63.119
2017-03-22T23:14:41.074Z,61.313
2017-03-22T23:17:34.702Z,62.583
2017-03-22T23:20:28.265Z,63.954
2017-03-22T23:23:23.595Z,64.568
2017-03-22T23:26:15.585Z,64.178
2017-03-22T23:29:09.183Z,62.541
2017-03-22T23:32:02.868Z,63.454
2017-03-22T23:34:56.549Z,63.958
2017-03-22T23:37:50.068Z,64.671
2017-03-22T23:40:45.247Z,61.512
2017-03-22T23:43:38.535Z,64.618
2017-03-22T23:46:30.261Z,63.651
2017-03-22T23:49:23.615Z,64.710
2017-03-22T23:52:16.981Z,61.501
2017-03-22T23:55:12.063Z,65.037
2017-03-22T23:58:03.787Z,63.699
